Stations météo

réclame
Mon MeteoGroup
Gent/Industry Zo, Pays-Bas (6431): Température de l'air & dewpoint: 17.09.2017 23:00:00 - 23.09.2017 23:00:00 (CEST)Gent/Industry Zo, Pays-Bas (6431): Vitesse du vent & gusts: 17.09.2017 23:00:00 - 23.09.2017 23:00:00 (CEST)Gent/Industry Zo, Pays-Bas (6431): Direction du vent: 17.09.2017 23:00:00 - 23.09.2017 23:00:00 (CEST)Gent/Industry Zo, Pays-Bas (6431): reduced air pressure: 17.09.2017 23:00:00 - 23.09.2017 23:00:00 (CEST)Gent/Industry Zo, Pays-Bas (6431): Ensoleillement: 17.09.2017 23:00:00 - 23.09.2017 23:00:00 (CEST)Gent/Industry Zo, Pays-Bas (6431): Quantités de précipitations: 17.09.2017 23:00:00 - 23.09.2017 23:00:00 (CEST)
Date & Time tt [°C] td [°C] ff [km/h] ff [knt] fx [km/h] fx [knt] dd ppp [hPa] sd [min] rr [mm]
23.09.2017 23:00:00 14,0 8,4 11 6 - - ESE 1022,8 - -
23.09.2017 22:00:00 14,5 9,9 11 6 16 9 E 1022,9 0 0,0
23.09.2017 21:00:00 14,2 10,6 6 4 10 6 E 1022,7 0 0,0
23.09.2017 20:00:00 15,6 11,2 4 2 10 5 E 1022,7 - 0,0
23.09.2017 19:00:00 17,6 10,6 5 3 12 6 E 1022,9 - 0,0
23.09.2017 18:00:00 18,2 10,2 8 4 15 8 E 1022,9 - 0,0
23.09.2017 17:00:00 18,4 10,7 9 5 16 9 E 1023,0 - 0,0
23.09.2017 16:00:00 18,5 10,4 8 4 13 7 ESE 1023,6 - 0,0
23.09.2017 15:00:00 18,3 11,4 5 3 19 10 E 1024,1 - 0,0
23.09.2017 14:00:00 18,0 11,6 7 4 16 9 E 1024,3 - 0,0
23.09.2017 13:00:00 17,6 11,9 8 4 14 8 E 1024,7 - 0,0
23.09.2017 12:00:00 16,4 12,2 8 4 18 10 SE 1024,8 - 0,0
23.09.2017 11:00:00 14,3 12,4 8 4 15 8 ESE 1024,9 - 0,0
23.09.2017 10:00:00 11,8 11,6 4 2 8 4 SSW 1024,7 - 0,0
23.09.2017 09:00:00 10,2 10,1 4 2 4 2 WSW 1024,4 - 0,0
23.09.2017 08:00:00 9,6 9,4 4 2 5 3 SSW 1024,3 - 0,0
23.09.2017 07:00:00 9,3 9,1 0 0 3 2 N 1023,9 0 0,1
23.09.2017 06:00:00 9,3 9,1 4 2 5 3 WSW 1024,1 0 0,0
23.09.2017 05:00:00 9,8 9,5 4 2 8 4 SW 1024,1 0 0,0
23.09.2017 04:00:00 10,5 10,3 5 3 6 4 WSW 1024,2 0 0,0
23.09.2017 03:00:00 10,3 10,0 4 2 6 4 W 1024,3 0 0,0
23.09.2017 02:00:00 10,3 9,9 4 2 5 3 SSW 1024,0 0 0,0
23.09.2017 01:00:00 11,0 10,5 4 2 6 3 WSW 1023,8 0 0,0
23.09.2017 00:00:00 10,9 10,4 4 2 4 2 WNW 1023,9 0 0,0
22.09.2017 23:00:00 11,4 10,7 4 2 5 3 NW 1023,8 0 0,0
22.09.2017 22:00:00 12,3 11,2 4 2 6 4 NNW 1023,5 0 0,0
22.09.2017 21:00:00 13,3 11,7 4 2 10 5 N 1023,3 0 0,0
22.09.2017 20:00:00 15,0 12,1 7 4 14 7 NW 1022,7 - 0,0
22.09.2017 19:00:00 16,6 11,9 12 7 19 11 NW 1022,3 - 0,0
22.09.2017 18:00:00 17,2 13,0 11 6 23 12 NNW 1022,0 - 0,0
22.09.2017 17:00:00 17,8 13,2 11 6 23 12 NNW 1021,7 - 0,0
22.09.2017 16:00:00 17,7 13,5 16 9 25 13 NW 1021,5 - 0,0
22.09.2017 15:00:00 17,8 14,1 19 10 26 14 WNW 1021,2 - 0,1
22.09.2017 14:00:00 16,9 14,7 11 6 23 12 NW 1021,1 - 2,5
22.09.2017 13:00:00 17,3 15,5 6 3 13 7 W 1020,9 - 0,0
22.09.2017 12:00:00 16,4 14,9 9 5 14 7 SW 1020,9 - 0,0
22.09.2017 11:00:00 15,6 14,4 6 3 11 6 SSW 1020,6 - 0,0
22.09.2017 10:00:00 14,6 13,7 6 4 9 5 SW 1020,4 - 0,0
22.09.2017 09:00:00 13,9 13,0 4 2 7 4 W 1019,8 - 0,0
22.09.2017 08:00:00 13,2 12,0 4 2 8 5 WNW 1019,6 - 0,0
22.09.2017 07:00:00 12,9 11,5 6 3 10 6 SW 1019,3 0 0,0
22.09.2017 06:00:00 13,1 11,2 7 4 13 7 WSW 1019,0 0 0,0
22.09.2017 05:00:00 13,4 11,1 9 5 14 7 SW 1019,0 0 0,0
22.09.2017 04:00:00 13,4 10,7 4 2 9 5 S 1019,0 0 0,0
22.09.2017 03:00:00 13,3 10,8 5 3 10 5 SSE 1019,1 0 0,0
22.09.2017 02:00:00 14,4 11,0 7 4 13 7 S 1019,1 0 0,0
22.09.2017 01:00:00 14,9 11,1 6 3 11 6 S 1018,9 0 0,0
22.09.2017 00:00:00 15,3 11,0 4 2 9 5 S 1019,0 0 0,0
21.09.2017 23:00:00 16,0 11,4 5 3 12 7 S 1019,1 0 0,0
21.09.2017 22:00:00 16,6 11,2 4 2 19 10 S 1019,0 0 0,0
21.09.2017 21:00:00 17,1 11,2 8 4 18 10 SSW 1018,9 0 0,0
21.09.2017 20:00:00 17,7 11,5 7 4 22 12 SSW 1018,6 - 0,0
21.09.2017 19:00:00 18,8 11,5 8 4 19 11 S 1018,2 - 0,0
21.09.2017 18:00:00 19,4 11,1 11 6 21 11 S 1018,1 - 0,0
21.09.2017 17:00:00 19,4 10,9 11 6 26 14 S 1018,2 - 0,0
21.09.2017 16:00:00 19,9 11,2 10 6 24 13 S 1018,3 - 0,0
21.09.2017 15:00:00 20,4 11,6 10 5 25 13 S 1018,7 - 0,0
21.09.2017 14:00:00 19,3 11,6 11 6 25 13 SSW 1019,0 - 0,0
21.09.2017 13:00:00 18,1 11,7 11 6 24 13 S 1019,3 - 0,0
21.09.2017 12:00:00 16,7 11,4 11 6 22 12 SSW 1019,6 - -
21.09.2017 11:00:00 15,1 11,0 10 5 22 12 S 1019,7 - 0,0
21.09.2017 10:00:00 13,4 10,6 6 3 16 9 SSE 1019,5 - 0,0
21.09.2017 09:00:00 12,2 10,0 8 4 18 10 S 1019,5 - 0,0
21.09.2017 08:00:00 11,6 9,7 7 4 20 11 S 1019,3 - 0,0
21.09.2017 07:00:00 11,6 9,7 5 3 16 9 SSE 1019,2 0 0,0
21.09.2017 06:00:00 11,8 9,8 5 3 16 9 SSE 1019,4 0 0,0
21.09.2017 05:00:00 12,2 10,1 5 3 17 9 S 1019,5 0 0,0
21.09.2017 04:00:00 12,4 10,3 9 5 16 9 S 1019,7 0 0,0
21.09.2017 03:00:00 12,8 10,4 6 4 15 8 S 1019,9 0 0,0
21.09.2017 02:00:00 13,5 10,7 7 4 22 12 SSW 1020,0 0 0,0
21.09.2017 01:00:00 14,1 11,1 8 5 23 12 S 1020,0 0 0,0
21.09.2017 00:00:00 14,7 11,9 6 3 18 10 S 1020,1 0 0,0
20.09.2017 23:00:00 15,5 11,9 5 3 13 7 S 1020,0 0 0,0
20.09.2017 22:00:00 15,3 12,1 6 4 15 8 SW 1020,1 0 0,0
20.09.2017 21:00:00 15,5 12,2 8 5 17 9 SW 1020,2 0 0,0
20.09.2017 20:00:00 16,2 12,3 7 4 19 11 SW 1019,9 - 0,0
20.09.2017 19:00:00 17,0 12,5 11 6 21 11 SW 1019,9 - 0,0
20.09.2017 18:00:00 17,4 11,9 12 6 23 12 SW 1020,0 - 0,0
20.09.2017 17:00:00 18,3 11,8 16 9 27 14 SW 1020,3 - 0,0
20.09.2017 16:00:00 18,4 11,6 15 8 22 12 WSW 1020,5 - 0,0
20.09.2017 15:00:00 17,9 11,6 10 5 19 10 SW 1020,7 - 0,0
20.09.2017 14:00:00 17,8 11,1 11 6 20 11 SW 1021,0 - 0,0
20.09.2017 13:00:00 17,4 13,2 10 5 22 12 SW 1021,2 - 0,0
20.09.2017 12:00:00 15,1 12,3 13 7 21 11 SW 1021,3 - 0,0
20.09.2017 11:00:00 14,1 12,3 9 5 17 9 SW 1021,1 - 0,0
20.09.2017 10:00:00 12,0 10,8 11 6 17 9 SW 1021,1 - 0,0
20.09.2017 09:00:00 10,5 9,9 9 5 16 9 SW 1021,1 - 0,0
20.09.2017 08:00:00 10,0 9,4 7 4 15 8 SW 1021,0 - 0,1
20.09.2017 07:00:00 10,0 9,5 8 5 14 8 SW 1020,9 0 0,0
20.09.2017 06:00:00 10,1 9,5 8 4 13 7 SW 1020,9 0 0,0
20.09.2017 05:00:00 10,6 10,0 8 4 16 9 SW 1021,0 0 0,0
20.09.2017 04:00:00 11,2 10,5 10 6 16 9 SW 1021,3 0 0,0
20.09.2017 03:00:00 11,7 11,2 9 5 18 10 SW 1021,7 0 0,0
20.09.2017 02:00:00 12,5 12,0 11 6 16 8 WSW 1021,7 0 0,0
20.09.2017 01:00:00 13,0 12,4 8 4 12 6 WSW 1021,7 0 0,0
20.09.2017 00:00:00 13,1 12,3 4 2 10 5 SW 1021,9 0 0,0
19.09.2017 23:00:00 13,5 12,5 7 4 15 8 NW 1022,1 0 0,1
19.09.2017 22:00:00 14,1 12,7 8 5 13 7 W 1021,8 0 0,0
19.09.2017 21:00:00 14,1 12,4 10 6 13 7 W 1021,4 - 0,0
19.09.2017 20:00:00 14,9 11,8 7 4 16 8 WNW 1020,9 - 0,0
19.09.2017 19:00:00 16,4 12,5 13 7 22 12 WNW 1020,6 - 0,0
19.09.2017 18:00:00 16,7 11,2 14 7 24 13 NNW 1020,3 - 0,0
19.09.2017 17:00:00 17,3 11,7 11 6 21 12 NNW 1020,1 - 0,0
19.09.2017 16:00:00 16,9 12,2 9 5 21 12 NW 1019,9 - 0,0
19.09.2017 15:00:00 17,8 11,9 11 6 20 11 NW 1019,9 - 0,0
19.09.2017 14:00:00 - - - - - - - - - -
19.09.2017 13:00:00 17,0 11,5 9 5 22 12 NNW 1019,6 - 0,0
19.09.2017 12:00:00 15,7 11,3 9 5 18 10 NNW 1019,3 - 0,0
19.09.2017 11:00:00 15,0 12,4 14 8 21 12 NW 1018,7 - 0,0
19.09.2017 10:00:00 12,8 12,2 9 5 14 8 WNW 1017,9 - 0,0
19.09.2017 09:00:00 11,9 11,5 10 5 16 8 WNW 1017,2 - 0,0
19.09.2017 08:00:00 11,7 11,3 12 7 15 8 W 1017,1 - 0,4
19.09.2017 07:00:00 11,5 11,1 11 6 15 8 W 1016,6 0 1,6
19.09.2017 06:00:00 11,1 10,5 7 4 16 9 W 1016,6 0 2,0
19.09.2017 05:00:00 11,4 11,0 10 6 20 11 W 1016,5 0 1,8
19.09.2017 04:00:00 11,3 11,0 15 8 22 12 WSW 1016,4 0 0,0
19.09.2017 03:00:00 11,3 11,0 14 8 18 10 WSW 1016,3 0 0,1
19.09.2017 02:00:00 11,2 10,7 14 8 16 9 WSW 1016,1 0 0,2
19.09.2017 01:00:00 11,7 11,1 9 5 21 12 WSW 1016,2 0 2,2
19.09.2017 00:00:00 11,9 11,4 12 7 19 10 W 1016,3 0 0,0
18.09.2017 23:00:00 12,1 11,6 11 6 19 11 WSW 1016,0 0 0,6
18.09.2017 22:00:00 12,8 12,1 13 7 18 10 WSW 1016,1 0 0,7
18.09.2017 21:00:00 13,0 11,1 9 5 16 9 WSW 1015,9 - 0,3
18.09.2017 20:00:00 13,9 12,1 11 6 17 9 WSW 1015,3 - 0,0
18.09.2017 19:00:00 14,4 12,4 11 6 20 11 WSW 1014,9 - 0,0
18.09.2017 18:00:00 14,2 11,9 13 7 21 12 WSW 1014,7 - 0,0
18.09.2017 17:00:00 14,5 11,1 16 8 22 12 W 1014,8 - 0,1
18.09.2017 16:00:00 15,0 12,6 18 10 27 14 W 1014,5 - 1,2
18.09.2017 15:00:00 15,2 12,8 14 8 24 13 W 1014,3 - 0,3
18.09.2017 14:00:00 14,8 11,4 18 10 28 15 W 1014,3 - 0,0
18.09.2017 13:00:00 14,6 11,7 19 10 32 17 W 1014,4 - 0,0
18.09.2017 12:00:00 14,2 11,9 16 8 29 15 WSW 1014,3 - 0,0
18.09.2017 11:00:00 15,0 12,7 13 7 19 11 SW 1014,1 - 0,0
18.09.2017 10:00:00 12,3 11,5 12 7 21 11 SW 1014,0 - 0,0
18.09.2017 09:00:00 11,6 11,1 10 5 16 9 SW 1013,7 - 0,0
18.09.2017 08:00:00 10,9 10,4 11 6 15 8 SW 1013,6 - 0,0
18.09.2017 07:00:00 10,9 10,4 10 5 17 9 WSW 1013,6 0 0,0
18.09.2017 06:00:00 11,1 10,6 9 5 14 8 W 1013,4 0 0,0
18.09.2017 05:00:00 10,6 10,1 9 5 16 8 WSW 1013,2 0 0,0
18.09.2017 04:00:00 10,7 10,1 11 6 16 9 WSW 1013,3 0 0,0
18.09.2017 03:00:00 11,3 10,4 9 5 16 9 WSW 1013,5 0 0,0
18.09.2017 02:00:00 11,6 10,3 7 4 15 8 SW 1013,3 0 0,0
18.09.2017 01:00:00 12,1 10,4 10 5 15 8 SW 1013,6 0 0,0
18.09.2017 00:00:00 12,6 10,9 7 4 11 6 SW 1013,9 0 0,0
17.09.2017 23:00:00 12,9 10,7 8 4 11 6 WSW 1013,7 0 0,0

tt = Température de l'air
td = dewpoint
ff = Vitesse du vent
fx = gusts
dd = Direction du vent
ppp = reduced air pressure
sd = Ensoleillement
rr = Quantités de précipitations

stations d'obs. à proximité